Time;durP1;ratioP1;P1;durP2;ratioP2;P2;SDS_P1;SDS_P2;PMS_P1;PMS_P2;Temp;Humidity;BMP_temperature;BMP_pressure;BME280_temperature;BME280_humidity;BME280_pressure;Samples;Min_cycle;Max_cycle;Signal;HPM_P1;HPM_P2
2022/09/16 00:00:56;;;;;;;9.07;1.60;;;9.70;99.90;;;;;;4999458;28;20305;-78
2022/09/16 00:03:23;;;;;;;5.67;1.47;;;9.80;99.90;;;;;;4997265;28;20244;-78
2022/09/16 00:05:52;;;;;;;6.33;1.37;;;9.80;99.90;;;;;;4997853;28;20221;-79
2022/09/16 00:08:21;;;;;;;6.93;1.80;;;9.80;99.90;;;;;;4994991;28;21737;-79
2022/09/16 00:10:49;;;;;;;5.27;1.60;;;9.80;99.90;;;;;;4979618;28;20220;-79
2022/09/16 00:13:17;;;;;;;6.90;1.83;;;9.80;99.90;;;;;;4998703;28;20247;-79
2022/09/16 00:15:45;;;;;;;5.07;1.17;;;9.80;99.90;;;;;;4999295;28;20236;-79
2022/09/16 00:18:12;;;;;;;4.97;1.80;;;9.80;99.90;;;;;;4997848;28;20229;-79
2022/09/16 00:20:44;;;;;;;5.40;1.77;;;9.80;99.90;;;;;;4981588;28;20214;-78
2022/09/16 00:23:12;;;;;;;5.53;1.63;;;9.80;99.90;;;;;;4993252;28;20309;-79
2022/09/16 00:25:41;;;;;;;6.27;1.53;;;9.80;99.90;;;;;;4980173;28;20232;-79
2022/09/16 00:28:08;;;;;;;5.13;1.50;;;9.80;99.90;;;;;;4985550;28;20216;-79
2022/09/16 00:30:35;;;;;;;7.03;1.53;;;9.70;99.90;;;;;;4999671;28;20221;-79
2022/09/16 00:33:01;;;;;;;4.67;1.50;;;9.70;99.90;;;;;;4997873;28;20902;-79
2022/09/16 00:35:30;;;;;;;5.43;1.47;;;9.70;99.90;;;;;;4993282;28;20324;-80
2022/09/16 00:37:57;;;;;;;7.43;1.30;;;9.70;99.90;;;;;;4994986;28;20888;-78
2022/09/16 00:40:23;;;;;;;5.37;1.60;;;9.70;99.90;;;;;;4999566;28;20227;-78
2022/09/16 00:42:51;;;;;;;5.67;1.43;;;9.70;99.90;;;;;;4992178;28;20228;-78
2022/09/16 00:45:20;;;;;;;6.27;1.47;;;9.70;99.90;;;;;;4956975;28;999804;-78
2022/09/16 00:47:51;;;;;;;9.63;1.90;;;9.70;99.90;;;;;;4999740;28;20237;-78
2022/09/16 00:50:23;;;;;;;6.53;1.70;;;9.80;99.90;;;;;;5001678;28;20233;-78
2022/09/16 00:52:51;;;;;;;10.23;2.30;;;9.80;99.90;;;;;;5002637;28;20249;-79
2022/09/16 00:55:23;;;;;;;7.53;1.67;;;9.80;99.90;;;;;;4983904;28;20238;-79
2022/09/16 00:57:54;;;;;;;5.87;1.70;;;9.90;99.90;;;;;;5007261;28;20322;-79
2022/09/16 01:00:20;;;;;;;5.37;1.70;;;9.90;99.90;;;;;;4984012;28;20225;-79
2022/09/16 01:02:48;;;;;;;6.50;1.70;;;9.90;99.90;;;;;;4997528;28;20783;-80
2022/09/16 01:05:19;;;;;;;5.57;1.83;;;9.90;99.90;;;;;;4996550;28;20221;-79
2022/09/16 01:07:48;;;;;;;5.33;1.90;;;9.90;99.90;;;;;;4979952;28;20225;-79
2022/09/16 01:10:16;;;;;;;5.93;1.70;;;9.90;99.90;;;;;;5001431;28;20230;-79
2022/09/16 01:12:46;;;;;;;6.27;1.60;;;9.90;99.90;;;;;;4998813;28;20248;-79
2022/09/16 01:15:16;;;;;;;6.50;1.80;;;10.00;99.90;;;;;;4993600;28;20321;-79
2022/09/16 01:17:59;;;;;;;5.43;1.60;;;10.00;99.90;;;;;;5000192;28;20345;-79
2022/09/16 01:21:01;;;;;;;5.27;1.70;;;9.90;99.90;;;;;;4997433;28;20229;-80
2022/09/16 01:23:59;;;;;;;4.70;1.70;;;10.00;99.90;;;;;;4999817;28;20244;-78
2022/09/16 01:26:56;;;;;;;9.97;1.70;;;10.00;99.90;;;;;;4996878;28;20239;-79
2022/09/16 01:30:05;;;;;;;4.33;1.33;;;10.00;99.90;;;;;;4952047;28;20355;-80
2022/09/16 01:32:42;;;;;;;4.60;2.00;;;10.00;99.90;;;;;;5007264;28;20228;-80
2022/09/16 01:35:19;;;;;;;7.53;1.80;;;10.00;99.90;;;;;;4994858;28;20235;-80
2022/09/16 01:37:57;;;;;;;4.60;1.40;;;10.00;99.90;;;;;;4997791;28;20687;-80
2022/09/16 01:40:29;;;;;;;10.20;1.50;;;10.10;99.90;;;;;;4998360;28;20229;-80
2022/09/16 01:43:02;;;;;;;2.90;1.20;;;10.10;99.90;;;;;;4991500;28;20255;-79
2022/09/16 01:45:37;;;;;;;3.80;1.50;;;10.10;99.90;;;;;;4998604;28;20792;-80
2022/09/16 01:48:11;;;;;;;4.17;1.30;;;10.00;99.90;;;;;;5000015;28;20459;-79
2022/09/16 01:50:43;;;;;;;3.97;1.23;;;10.10;99.90;;;;;;4996308;28;20241;-80
2022/09/16 01:53:15;;;;;;;4.13;1.43;;;10.10;99.90;;;;;;4995477;28;20240;-79
2022/09/16 01:55:49;;;;;;;4.57;1.60;;;10.00;99.90;;;;;;4999305;28;20751;-79
2022/09/16 01:58:21;;;;;;;4.90;1.57;;;10.00;99.90;;;;;;4999757;28;20230;-80
2022/09/16 02:00:53;;;;;;;4.20;2.00;;;10.00;99.90;;;;;;4998525;28;20962;-80
2022/09/16 02:03:25;;;;;;;4.10;1.50;;;10.00;99.90;;;;;;4986918;28;20221;-79
2022/09/16 02:05:56;;;;;;;5.47;1.50;;;10.00;99.90;;;;;;4997143;28;20236;-78
2022/09/16 02:08:27;;;;;;;5.40;1.83;;;10.00;99.90;;;;;;4984764;28;20222;-80
2022/09/16 02:10:58;;;;;;;7.07;2.03;;;9.90;99.90;;;;;;5000641;28;20220;-80
2022/09/16 02:13:29;;;;;;;6.27;1.87;;;9.90;99.90;;;;;;5001478;28;22031;-80
2022/09/16 02:16:01;;;;;;;5.70;2.00;;;9.80;99.90;;;;;;4995648;28;20323;-80
2022/09/16 02:18:35;;;;;;;3.83;1.87;;;9.80;99.90;;;;;;4985914;28;20232;-80
2022/09/16 02:21:05;;;;;;;5.17;1.80;;;9.70;99.90;;;;;;5000752;28;20225;-80
2022/09/16 02:23:38;;;;;;;6.03;2.00;;;9.70;99.90;;;;;;5002772;28;20313;-80
2022/09/16 02:26:08;;;;;;;5.03;1.70;;;9.70;99.90;;;;;;5002285;28;20221;-80
2022/09/16 02:28:40;;;;;;;4.83;1.80;;;9.60;99.90;;;;;;4995043;28;20224;-80
2022/09/16 02:31:09;;;;;;;4.87;2.10;;;9.60;99.90;;;;;;4997928;28;20341;-80
2022/09/16 02:33:44;;;;;;;8.17;2.03;;;9.60;99.90;;;;;;4983103;28;20235;-80
2022/09/16 02:36:14;;;;;;;4.83;1.87;;;9.60;99.90;;;;;;4996447;28;20802;-80
2022/09/16 02:38:46;;;;;;;9.00;2.23;;;9.50;99.90;;;;;;5000216;28;20232;-80
2022/09/16 02:41:14;;;;;;;3.77;1.60;;;9.50;99.90;;;;;;5002693;28;20778;-80
2022/09/16 02:43:41;;;;;;;4.30;1.80;;;9.40;99.90;;;;;;4986450;28;20802;-80
2022/09/16 02:46:15;;;;;;;4.47;1.80;;;9.40;99.90;;;;;;4980477;28;20229;-79
2022/09/16 02:48:55;;;;;;;3.77;1.63;;;9.40;99.90;;;;;;4978185;28;20217;-79
2022/09/16 02:51:30;;;;;;;5.93;1.90;;;9.50;99.90;;;;;;4999459;28;20236;-79
2022/09/16 02:54:02;;;;;;;5.70;2.20;;;9.50;99.90;;;;;;5011466;28;20737;-79
2022/09/16 02:56:32;;;;;;;6.63;1.90;;;9.50;99.90;;;;;;5000821;28;20325;-79
2022/09/16 02:59:00;;;;;;;5.47;2.20;;;9.60;99.90;;;;;;5000657;28;21042;-79
2022/09/16 03:01:30;;;;;;;6.63;1.97;;;9.60;99.90;;;;;;4994275;28;20605;-80
2022/09/16 03:03:58;;;;;;;4.27;1.80;;;9.60;99.90;;;;;;5004620;28;20217;-78
2022/09/16 03:06:27;;;;;;;4.83;2.13;;;9.60;99.90;;;;;;4996219;28;20236;-79
2022/09/16 03:08:59;;;;;;;4.77;1.57;;;9.60;99.90;;;;;;4997833;28;20226;-80
2022/09/16 03:11:41;;;;;;;3.17;1.50;;;9.60;99.90;;;;;;4999108;28;20229;-80
2022/09/16 03:14:20;;;;;;;4.60;1.80;;;9.60;99.90;;;;;;4978428;28;20226;-80
2022/09/16 03:16:59;;;;;;;5.23;1.67;;;9.60;99.90;;;;;;4997750;28;20236;-80
2022/09/16 03:19:35;;;;;;;5.17;1.53;;;9.60;99.90;;;;;;5002353;28;20228;-80
2022/09/16 03:22:07;;;;;;;6.37;1.70;;;9.50;99.90;;;;;;5005459;28;20628;-80
2022/09/16 03:24:46;;;;;;;4.67;1.63;;;9.50;99.90;;;;;;4999043;28;20228;-80
2022/09/16 03:27:19;;;;;;;4.77;1.53;;;9.50;99.90;;;;;;4967622;28;20221;-80
2022/09/16 03:29:51;;;;;;;3.60;1.57;;;9.50;99.90;;;;;;4983731;28;20250;-80
2022/09/16 03:32:21;;;;;;;2.73;1.50;;;9.50;99.90;;;;;;4983149;28;20232;-80
2022/09/16 03:34:52;;;;;;;4.70;1.47;;;9.50;99.90;;;;;;5002566;28;20299;-80
2022/09/16 03:37:22;;;;;;;5.73;1.80;;;9.50;99.90;;;;;;4994873;28;20236;-80
2022/09/16 03:39:56;;;;;;;3.53;1.70;;;9.50;99.90;;;;;;5003410;28;20665;-80
2022/09/16 03:42:23;;;;;;;5.93;1.80;;;9.50;99.90;;;;;;5000117;28;20221;-80
2022/09/16 03:44:54;;;;;;;6.57;1.80;;;9.50;99.90;;;;;;5002152;28;20589;-79
2022/09/16 03:47:21;;;;;;;5.53;1.50;;;9.40;99.90;;;;;;4988882;28;20221;-79
2022/09/16 03:49:51;;;;;;;5.53;1.57;;;9.40;99.90;;;;;;4983282;28;20220;-79
2022/09/16 03:52:18;;;;;;;5.23;1.93;;;9.40;99.90;;;;;;5000275;28;20272;-79
2022/09/16 03:54:47;;;;;;;7.47;1.77;;;9.30;99.90;;;;;;4998976;28;20299;-80
2022/09/16 03:57:16;;;;;;;3.67;1.50;;;9.30;99.90;;;;;;4982774;28;20278;-80
2022/09/16 03:59:42;;;;;;;5.57;1.63;;;9.20;99.90;;;;;;4998811;28;20226;-79
2022/09/16 04:02:09;;;;;;;8.33;1.93;;;9.20;99.90;;;;;;4992161;28;20225;-79
2022/09/16 04:04:35;;;;;;;6.37;1.90;;;9.20;99.90;;;;;;4993057;28;20246;-77
2022/09/16 04:07:04;;;;;;;5.93;1.90;;;9.10;99.90;;;;;;4995008;28;20217;-78
2022/09/16 04:09:30;;;;;;;4.97;1.70;;;9.20;99.90;;;;;;4994058;28;20613;-78
2022/09/16 04:11:57;;;;;;;5.30;2.03;;;9.10;99.90;;;;;;4998139;28;20754;-78
2022/09/16 04:14:24;;;;;;;9.33;2.30;;;9.10;99.90;;;;;;4998095;28;20277;-79
2022/09/16 04:16:53;;;;;;;8.97;2.33;;;9.10;99.90;;;;;;4998157;28;20399;-78
2022/09/16 04:19:20;;;;;;;5.30;2.13;;;9.20;99.90;;;;;;4980481;28;20249;-77
2022/09/16 04:21:47;;;;;;;4.60;1.93;;;9.20;99.90;;;;;;4999137;28;20231;-78
2022/09/16 04:24:16;;;;;;;5.63;1.97;;;9.20;99.90;;;;;;4995343;28;20815;-78
2022/09/16 04:26:43;;;;;;;5.63;1.80;;;9.20;99.90;;;;;;4981809;28;20255;-77
2022/09/16 04:29:10;;;;;;;5.20;1.80;;;9.30;99.90;;;;;;4995472;28;20235;-77
2022/09/16 04:31:37;;;;;;;15.57;2.43;;;9.30;99.90;;;;;;4993096;28;20224;-77
2022/09/16 04:34:04;;;;;;;4.53;1.90;;;9.30;99.90;;;;;;4997439;28;20223;-78
2022/09/16 04:36:32;;;;;;;6.93;1.77;;;9.30;99.90;;;;;;4976732;28;20333;-76
2022/09/16 04:38:59;;;;;;;3.33;1.63;;;9.30;99.90;;;;;;4970740;28;20315;-78
2022/09/16 04:41:27;;;;;;;9.80;2.00;;;9.30;99.90;;;;;;4993479;28;20316;-78
2022/09/16 04:43:55;;;;;;;5.80;1.97;;;9.30;99.90;;;;;;4992396;28;20991;-78
2022/09/16 04:46:22;;;;;;;7.67;2.20;;;9.20;99.90;;;;;;4981106;28;20343;-78
2022/09/16 04:48:50;;;;;;;4.07;1.70;;;9.20;99.90;;;;;;5001422;28;20254;-78
2022/09/16 04:51:18;;;;;;;5.37;2.00;;;9.20;99.90;;;;;;4981317;28;20232;-77
2022/09/16 04:53:46;;;;;;;5.73;1.90;;;9.10;99.90;;;;;;4995759;28;20255;-79
2022/09/16 04:56:15;;;;;;;7.13;2.30;;;9.10;99.90;;;;;;5000709;28;20228;-81
2022/09/16 04:58:44;;;;;;;6.77;2.00;;;9.10;99.90;;;;;;4998022;28;20328;-83
2022/09/16 05:01:13;;;;;;;6.00;2.10;;;9.10;99.90;;;;;;4998769;28;20251;-82
2022/09/16 05:03:40;;;;;;;6.80;2.27;;;9.00;99.90;;;;;;4977321;28;20243;-84
2022/09/16 05:06:10;;;;;;;5.27;1.70;;;9.00;99.90;;;;;;5012607;28;20231;-80
2022/09/16 05:08:37;;;;;;;3.47;2.10;;;9.00;99.90;;;;;;4999379;28;20244;-84
2022/09/16 05:11:06;;;;;;;7.03;2.07;;;9.00;99.90;;;;;;4999931;28;20232;-83
2022/09/16 05:13:34;;;;;;;5.67;2.37;;;9.00;99.90;;;;;;5016249;28;20221;-83
2022/09/16 05:16:03;;;;;;;4.67;2.33;;;9.00;99.90;;;;;;5003064;28;20326;-82
2022/09/16 05:18:36;;;;;;;2.83;1.70;;;9.10;99.90;;;;;;4992755;28;20255;-81
2022/09/16 05:21:05;;;;;;;5.47;1.77;;;9.10;99.90;;;;;;5001898;28;20324;-80
2022/09/16 05:23:32;;;;;;;6.17;2.03;;;9.20;99.90;;;;;;4998633;28;20229;-80
2022/09/16 05:26:03;;;;;;;7.87;2.00;;;9.20;99.90;;;;;;4990619;28;20727;-81
2022/09/16 05:28:33;;;;;;;7.60;1.60;;;9.30;99.90;;;;;;5002409;28;20232;-80
2022/09/16 05:31:13;;;;;;;7.73;1.63;;;9.30;99.90;;;;;;4997289;28;20396;-81
2022/09/16 05:33:43;;;;;;;5.63;1.87;;;9.30;99.90;;;;;;4993091;28;20225;-82
2022/09/16 05:36:15;;;;;;;7.83;2.00;;;9.30;99.90;;;;;;4980911;28;20240;-80
2022/09/16 05:38:43;;;;;;;5.77;1.73;;;9.30;99.90;;;;;;4986896;28;20229;-81
2022/09/16 05:41:09;;;;;;;7.90;1.77;;;9.30;99.90;;;;;;4993896;28;20800;-81
2022/09/16 05:43:37;;;;;;;8.10;1.97;;;9.30;99.90;;;;;;4989676;28;21099;-80
2022/09/16 05:46:04;;;;;;;3.97;2.17;;;9.30;99.90;;;;;;5002588;28;20385;-80
2022/09/16 05:48:34;;;;;;;6.90;1.90;;;9.30;99.90;;;;;;4987409;28;20244;-80
2022/09/16 05:51:03;;;;;;;8.27;2.30;;;9.30;99.90;;;;;;4998742;28;20783;-81
2022/09/16 05:53:31;;;;;;;7.27;2.00;;;9.30;99.90;;;;;;4986260;28;20251;-80
2022/09/16 05:55:59;;;;;;;6.23;2.00;;;9.30;99.90;;;;;;4999613;28;20251;-81
2022/09/16 05:58:27;;;;;;;8.47;2.30;;;9.40;99.90;;;;;;4999301;28;20236;-81
2022/09/16 06:00:59;;;;;;;4.50;2.03;;;9.40;99.90;;;;;;5002535;28;20221;-81
2022/09/16 06:03:26;;;;;;;6.70;2.10;;;9.50;99.90;;;;;;5002525;28;20693;-80
2022/09/16 06:05:59;;;;;;;3.67;1.70;;;9.50;99.90;;;;;;4989806;28;20232;-81
2022/09/16 06:08:26;;;;;;;6.93;2.20;;;9.50;99.90;;;;;;5006419;28;20566;-81
2022/09/16 06:10:53;;;;;;;5.33;1.83;;;9.50;99.90;;;;;;4985815;28;20228;-81
2022/09/16 06:13:19;;;;;;;7.97;1.90;;;9.60;99.90;;;;;;4996750;28;20229;-82
2022/09/16 06:15:49;;;;;;;4.80;1.77;;;9.60;99.90;;;;;;4987275;28;20660;-80
2022/09/16 06:18:17;;;;;;;8.60;1.93;;;9.60;99.90;;;;;;4986112;28;20289;-80
2022/09/16 06:20:44;;;;;;;6.30;1.47;;;9.60;99.90;;;;;;5000938;28;20260;-80
2022/09/16 06:23:12;;;;;;;8.00;1.93;;;9.60;99.90;;;;;;4984934;28;20224;-80
2022/09/16 06:25:39;;;;;;;5.17;1.63;;;9.60;99.90;;;;;;5000133;28;20225;-81
2022/09/16 06:28:05;;;;;;;5.47;1.50;;;9.60;99.90;;;;;;4998608;28;20220;-80
2022/09/16 06:30:32;;;;;;;5.87;1.70;;;9.70;99.90;;;;;;4986375;28;20264;-81
2022/09/16 06:33:01;;;;;;;6.17;1.80;;;9.70;99.90;;;;;;5002857;28;20247;-80
2022/09/16 06:35:28;;;;;;;4.30;1.60;;;9.70;99.90;;;;;;5000210;28;20237;-79
2022/09/16 06:37:54;;;;;;;7.43;1.70;;;9.70;99.90;;;;;;4999608;28;20249;-80
2022/09/16 06:40:23;;;;;;;8.00;2.03;;;9.70;99.90;;;;;;5000468;28;20341;-80
2022/09/16 06:42:52;;;;;;;10.13;1.87;;;9.80;99.90;;;;;;4996854;28;20643;-80
2022/09/16 06:45:19;;;;;;;8.90;2.17;;;9.80;99.90;;;;;;4985531;28;20230;-79
2022/09/16 06:47:47;;;;;;;6.70;1.93;;;9.80;99.90;;;;;;5004177;28;20222;-79
2022/09/16 06:50:13;;;;;;;5.07;1.87;;;9.80;99.90;;;;;;5000029;28;20229;-80
2022/09/16 06:52:40;;;;;;;7.50;1.63;;;9.90;99.90;;;;;;4978169;28;20240;-80
2022/09/16 06:55:10;;;;;;;4.53;1.40;;;10.00;99.90;;;;;;4999661;28;20225;-82
2022/09/16 06:57:38;;;;;;;8.23;2.20;;;10.00;99.90;;;;;;5005346;28;20228;-82
2022/09/16 07:00:05;;;;;;;8.23;1.47;;;10.00;99.90;;;;;;5001361;28;20220;-80
2022/09/16 07:02:32;;;;;;;6.40;1.70;;;10.10;99.90;;;;;;5007221;28;20253;-81
2022/09/16 07:05:00;;;;;;;7.77;1.57;;;10.10;99.90;;;;;;5002723;28;20357;-80
2022/09/16 07:07:29;;;;;;;5.57;1.73;;;10.10;99.90;;;;;;4999753;28;20717;-80
2022/09/16 07:09:56;;;;;;;7.20;1.77;;;10.20;99.90;;;;;;5002664;28;20223;-81
2022/09/16 07:12:23;;;;;;;8.73;1.40;;;10.20;99.90;;;;;;4997016;28;20236;-80
2022/09/16 07:14:53;;;;;;;6.37;1.63;;;10.20;99.90;;;;;;5002359;28;20220;-81
2022/09/16 07:17:22;;;;;;;10.20;1.80;;;10.30;99.90;;;;;;4995008;28;20222;-81
2022/09/16 07:19:49;;;;;;;5.70;1.53;;;10.30;99.90;;;;;;5006775;28;20767;-81
2022/09/16 07:22:16;;;;;;;5.83;1.53;;;10.40;99.90;;;;;;5001716;28;20221;-81
2022/09/16 07:24:42;;;;;;;5.77;2.03;;;10.50;99.90;;;;;;5006339;28;20232;-82
2022/09/16 07:27:09;;;;;;;5.03;1.40;;;10.50;99.90;;;;;;5011206;28;20717;-82
2022/09/16 07:29:36;;;;;;;7.87;1.50;;;10.60;99.90;;;;;;5003216;28;20227;-82
2022/09/16 07:32:04;;;;;;;6.03;1.47;;;10.70;99.90;;;;;;5003487;28;20230;-82
2022/09/16 07:34:30;;;;;;;8.77;1.63;;;10.80;99.90;;;;;;4982321;28;20232;-81
2022/09/16 07:36:58;;;;;;;10.17;1.73;;;10.90;99.90;;;;;;4993474;28;20222;-81
2022/09/16 07:39:25;;;;;;;4.93;1.20;;;11.10;99.90;;;;;;4995097;28;20247;-81
2022/09/16 07:41:52;;;;;;;5.53;1.60;;;11.20;99.90;;;;;;4998942;28;20255;-83
2022/09/16 07:44:20;;;;;;;8.30;1.37;;;11.30;99.90;;;;;;4979431;28;20226;-81
2022/09/16 07:46:49;;;;;;;10.43;1.87;;;11.30;99.90;;;;;;4997443;28;20221;-83
2022/09/16 07:49:18;;;;;;;8.97;1.77;;;11.40;99.90;;;;;;4984030;28;20239;-82
2022/09/16 07:51:44;;;;;;;3.90;1.27;;;11.40;99.90;;;;;;5002948;28;20223;-83
2022/09/16 07:54:13;;;;;;;4.27;1.60;;;11.40;99.90;;;;;;5000851;28;20363;-81
2022/09/16 07:56:41;;;;;;;5.27;1.40;;;11.50;99.90;;;;;;5000597;28;20355;-84
2022/09/16 07:59:11;;;;;;;7.20;1.30;;;11.60;99.90;;;;;;4998326;28;20769;-83
2022/09/16 08:01:38;;;;;;;8.13;1.83;;;11.70;99.90;;;;;;5007082;28;20224;-83
2022/09/16 08:04:05;;;;;;;8.90;1.30;;;11.70;99.90;;;;;;4983548;28;20228;-82
2022/09/16 08:06:33;;;;;;;4.70;1.37;;;11.90;99.90;;;;;;4995363;28;20225;-82
2022/09/16 08:09:01;;;;;;;5.47;1.20;;;12.00;99.90;;;;;;4984859;28;20226;-82
2022/09/16 08:11:29;;;;;;;4.33;1.07;;;12.20;99.90;;;;;;5000083;28;20237;-82
2022/09/16 08:13:57;;;;;;;7.50;1.30;;;12.30;99.90;;;;;;4982018;28;20254;-82
2022/09/16 08:16:24;;;;;;;10.13;1.93;;;12.40;99.90;;;;;;4998007;28;20238;-82
2022/09/16 08:18:54;;;;;;;7.47;1.50;;;12.60;99.90;;;;;;5000736;28;20302;-83
2022/09/16 08:21:25;;;;;;;7.43;1.50;;;12.70;99.90;;;;;;4986270;28;20633;-81
2022/09/16 08:23:53;;;;;;;8.53;1.53;;;12.70;99.90;;;;;;4999448;28;20299;-81
2022/09/16 08:26:21;;;;;;;5.53;1.40;;;12.90;99.90;;;;;;4996899;28;20889;-81
2022/09/16 08:28:49;;;;;;;5.57;1.50;;;13.10;99.90;;;;;;5003957;28;20260;-81
2022/09/16 08:31:16;;;;;;;7.30;1.20;;;13.50;99.90;;;;;;5001000;28;20231;-81
2022/09/16 08:33:44;;;;;;;6.93;1.63;;;13.90;99.90;;;;;;5000839;28;20231;-81
2022/09/16 08:36:14;;;;;;;7.60;1.37;;;14.40;99.90;;;;;;5003130;28;20242;-79
2022/09/16 08:38:42;;;;;;;6.23;1.37;;;15.00;99.90;;;;;;5006368;28;20232;-80
2022/09/16 08:41:31;;;;;;;4.07;1.20;;;15.50;99.90;;;;;;5003365;28;20235;-79
2022/09/16 08:44:09;;;;;;;5.07;1.17;;;15.90;99.90;;;;;;4977691;28;20224;-79
2022/09/16 08:46:43;;;;;;;4.70;1.30;;;16.30;99.90;;;;;;5003088;28;20648;-79
2022/09/16 08:49:19;;;;;;;3.70;1.23;;;16.50;99.90;;;;;;4992542;28;20233;-80
2022/09/16 08:51:46;;;;;;;5.63;1.87;;;16.50;99.90;;;;;;4991380;28;20233;-79
2022/09/16 08:54:24;;;;;;;4.87;1.50;;;16.30;99.90;;;;;;5007758;28;20780;-80
2022/09/16 08:56:54;;;;;;;6.50;1.37;;;16.10;99.90;;;;;;4989002;28;20302;-80
2022/09/16 08:59:25;;;;;;;5.90;1.57;;;15.80;99.90;;;;;;5000519;28;21065;-79
2022/09/16 09:01:59;;;;;;;5.73;1.37;;;15.50;99.90;;;;;;5008983;28;20230;-79
2022/09/16 09:04:26;;;;;;;4.30;1.63;;;15.20;99.90;;;;;;5006903;28;20230;-79
2022/09/16 09:07:06;;;;;;;6.03;1.60;;;15.00;99.90;;;;;;5002697;28;20759;-78
2022/09/16 09:09:49;;;;;;;4.83;1.37;;;14.80;99.90;;;;;;4999506;28;21516;-79
2022/09/16 09:12:29;;;;;;;7.23;1.40;;;14.80;99.90;;;;;;5002368;28;20252;-79
2022/09/16 09:15:07;;;;;;;5.27;1.17;;;14.80;99.90;;;;;;5002349;28;20231;-79
2022/09/16 09:17:51;;;;;;;6.13;1.50;;;14.90;99.90;;;;;;5002143;28;20301;-79
2022/09/16 09:20:27;;;;;;;6.63;1.37;;;15.10;99.90;;;;;;4995781;28;20231;-80
2022/09/16 09:23:11;;;;;;;5.97;1.60;;;15.30;99.90;;;;;;5003613;28;20726;-79
2022/09/16 09:25:45;;;;;;;4.20;1.30;;;15.50;99.90;;;;;;5003469;28;20236;-78
2022/09/16 09:28:27;;;;;;;6.20;1.40;;;15.70;99.90;;;;;;5002202;28;20231;-79
2022/09/16 09:31:01;;;;;;;4.30;1.37;;;15.90;99.90;;;;;;5004312;28;20246;-79
2022/09/16 09:33:37;;;;;;;8.50;1.67;;;16.00;99.90;;;;;;5003663;28;20233;-79
2022/09/16 09:36:25;;;;;;;8.70;2.20;;;16.20;99.90;;;;;;4996315;28;20234;-79
2022/09/16 09:39:18;;;;;;;7.07;2.30;;;16.40;99.90;;;;;;5004889;28;21218;-79
2022/09/16 09:41:49;;;;;;;6.53;1.47;;;16.50;99.90;;;;;;5002183;28;20223;-79
2022/09/16 09:44:40;;;;;;;5.47;1.60;;;16.60;99.90;;;;;;4985944;28;20254;-79
2022/09/16 09:47:20;;;;;;;5.37;1.03;;;16.40;99.90;;;;;;5000731;28;20594;-79
2022/09/16 09:49:50;;;;;;;4.73;1.63;;;16.20;99.90;;;;;;5003711;28;20412;-79
2022/09/16 09:52:21;;;;;;;5.90;1.33;;;15.90;99.90;;;;;;5005765;28;20227;-79
2022/09/16 09:54:50;;;;;;;5.87;1.47;;;15.90;99.90;;;;;;5002349;28;20214;-79
2022/09/16 09:57:30;;;;;;;5.20;1.43;;;15.90;99.90;;;;;;5003355;28;20590;-79
2022/09/16 10:00:05;;;;;;;4.00;1.20;;;16.10;99.90;;;;;;5002718;28;20226;-78
2022/09/16 10:02:43;;;;;;;7.77;1.70;;;16.40;99.90;;;;;;5004538;28;20223;-79
2022/09/16 10:05:22;;;;;;;6.07;1.60;;;16.70;99.90;;;;;;4990080;28;20790;-79
2022/09/16 10:07:50;;;;;;;6.07;1.40;;;17.00;99.90;;;;;;4999449;28;20632;-79
2022/09/16 10:10:21;;;;;;;7.27;1.50;;;17.40;99.90;;;;;;5000596;28;20233;-79
2022/09/16 10:12:47;;;;;;;5.57;1.50;;;17.70;99.90;;;;;;4998522;28;20238;-79
2022/09/16 10:15:24;;;;;;;4.83;1.60;;;18.00;99.90;;;;;;4997261;28;20240;-78
2022/09/16 10:17:52;;;;;;;5.43;1.50;;;18.30;99.90;;;;;;5003731;28;20228;-79
2022/09/16 10:20:26;;;;;;;5.27;1.30;;;18.50;99.90;;;;;;5005871;28;20733;-80
2022/09/16 10:22:57;;;;;;;4.27;1.50;;;18.80;99.90;;;;;;5004957;28;20225;-80
2022/09/16 10:25:25;;;;;;;4.87;1.30;;;19.00;99.50;;;;;;4995988;28;20359;-79
2022/09/16 10:27:55;;;;;;;9.60;1.80;;;19.00;98.10;;;;;;5007031;28;20217;-79
2022/09/16 10:30:23;;;;;;;5.37;1.37;;;18.90;98.00;;;;;;5002387;28;20228;-79
2022/09/16 10:32:53;;;;;;;6.10;1.60;;;18.80;98.10;;;;;;5001720;28;20249;-79
2022/09/16 10:35:23;;;;;;;5.70;1.50;;;18.60;97.80;;;;;;5005816;28;20249;-79
2022/09/16 10:37:55;;;;;;;5.90;1.50;;;18.60;99.00;;;;;;5007139;28;20249;-80
2022/09/16 10:40:23;;;;;;;4.80;1.47;;;18.50;98.50;;;;;;4986621;28;20257;-79
2022/09/16 10:42:52;;;;;;;6.40;1.70;;;18.50;97.80;;;;;;4991412;28;20332;-80
2022/09/16 10:45:29;;;;;;;6.60;1.50;;;18.60;97.20;;;;;;5002610;28;20261;-80
2022/09/16 10:47:58;;;;;;;7.70;1.40;;;18.80;97.00;;;;;;5008129;28;20227;-79
2022/09/16 10:50:26;;;;;;;4.33;1.33;;;18.90;96.00;;;;;;5004454;28;20233;-80
2022/09/16 10:52:53;;;;;;;4.13;1.13;;;19.00;95.90;;;;;;4998669;28;21159;-80
2022/09/16 10:55:24;;;;;;;3.87;1.37;;;19.20;96.10;;;;;;5004076;28;20307;-79
2022/09/16 10:57:51;;;;;;;8.00;1.47;;;19.40;95.90;;;;;;4988963;28;20228;-80
2022/09/16 11:00:20;;;;;;;5.33;1.40;;;19.50;94.80;;;;;;5003850;28;20229;-79
2022/09/16 11:03:20;;;;;;;4.43;1.20;;;19.70;94.40;;;;;;5003364;28;20303;-78
2022/09/16 11:06:00;;;;;;;5.07;1.42;;;19.80;93.80;;;;;;5002045;28;20221;-79
2022/09/16 11:08:42;;;;;;;4.40;1.30;;;20.10;92.40;;;;;;4991676;28;20225;-79
2022/09/16 11:11:17;;;;;;;7.07;1.40;;;20.10;91.30;;;;;;5001778;28;20727;-80
2022/09/16 11:13:52;;;;;;;6.60;1.40;;;20.20;91.30;;;;;;5000142;28;20248;-80
2022/09/16 11:16:46;;;;;;;6.80;1.98;;;20.20;91.60;;;;;;5003077;28;20229;-80
2022/09/16 11:19:22;;;;;;;8.15;1.38;;;20.30;91.50;;;;;;4995928;28;20404;-80
2022/09/16 11:22:04;;;;;;;6.07;1.70;;;20.40;91.00;;;;;;5005291;28;20225;-79
2022/09/16 11:24:53;;;;;;;3.27;1.30;;;20.40;90.10;;;;;;5000562;28;20315;-79
2022/09/16 11:27:30;;;;;;;5.87;1.33;;;20.20;90.60;;;;;;4987323;28;20308;-79
2022/09/16 11:30:08;;;;;;;6.70;1.17;;;20.10;90.60;;;;;;5002090;28;20279;-79
2022/09/16 11:32:58;;;;;;;3.17;1.20;;;19.70;89.50;;;;;;5005508;28;20247;-80
2022/09/16 11:35:43;;;;;;;2.93;1.10;;;19.30;91.30;;;;;;4997179;28;20230;-79
2022/09/16 11:38:19;;;;;;;3.63;1.20;;;18.70;92.70;;;;;;5001489;28;20346;-79
2022/09/16 11:40:53;;;;;;;5.50;1.47;;;18.10;93.90;;;;;;4997496;28;20251;-79
2022/09/16 11:43:44;;;;;;;3.67;1.30;;;17.60;94.90;;;;;;5002283;28;20219;-79
2022/09/16 11:46:22;;;;;;;6.07;1.47;;;17.10;95.60;;;;;;4979456;28;20226;-78
2022/09/16 11:48:59;;;;;;;4.57;1.27;;;16.60;96.60;;;;;;5001974;28;20304;-79
2022/09/16 11:51:40;;;;;;;5.57;1.30;;;16.20;97.20;;;;;;5002495;28;20227;-79
2022/09/16 11:54:20;;;;;;;7.00;1.33;;;15.90;97.80;;;;;;4997303;28;20311;-79
2022/09/16 11:56:51;;;;;;;7.83;1.40;;;15.70;98.70;;;;;;4981178;28;20229;-79
2022/09/16 11:59:24;;;;;;;7.37;1.50;;;15.50;99.20;;;;;;4998065;28;20310;-79
2022/09/16 12:01:56;;;;;;;6.80;1.30;;;15.40;99.50;;;;;;4995337;28;20229;-80
2022/09/16 12:04:28;;;;;;;5.47;1.60;;;15.40;99.90;;;;;;4994876;28;20226;-79
2022/09/16 12:07:03;;;;;;;5.90;1.60;;;15.50;99.90;;;;;;5001511;28;20237;-80
2022/09/16 12:09:37;;;;;;;7.23;1.23;;;15.70;99.50;;;;;;5000442;28;20517;-78
2022/09/16 12:12:11;;;;;;;6.67;1.50;;;15.90;99.40;;;;;;4995765;28;20219;-79
2022/09/16 12:14:42;;;;;;;5.90;1.40;;;16.30;98.70;;;;;;5003520;28;20255;-80
2022/09/16 12:17:13;;;;;;;5.37;1.30;;;16.60;98.00;;;;;;5006396;28;20220;-79
2022/09/16 12:19:46;;;;;;;7.43;1.37;;;16.90;97.30;;;;;;4994781;28;20256;-79
2022/09/16 12:22:19;;;;;;;5.53;1.23;;;17.20;96.10;;;;;;4997882;28;20611;-79
2022/09/16 12:24:51;;;;;;;4.73;1.47;;;17.30;95.80;;;;;;4997991;28;20228;-78
2022/09/16 12:27:32;;;;;;;4.97;1.37;;;17.50;95.80;;;;;;4979730;28;20241;-78
2022/09/16 12:30:04;;;;;;;9.27;1.70;;;17.60;94.90;;;;;;4997011;28;20222;-80
2022/09/16 12:32:36;;;;;;;5.20;1.60;;;17.70;94.60;;;;;;4996820;28;20237;-79
2022/09/16 12:35:11;;;;;;;6.57;1.40;;;17.70;94.60;;;;;;5000767;28;20224;-79
2022/09/16 12:37:46;;;;;;;8.43;1.80;;;17.70;95.70;;;;;;5000443;28;20266;-82
2022/09/16 12:40:17;;;;;;;6.17;1.50;;;17.50;96.50;;;;;;4992162;28;20695;-81
2022/09/16 12:43:07;;;;;;;4.03;1.40;;;17.20;97.30;;;;;;5002990;28;20226;-81
2022/09/16 12:46:16;;;;;;;3.53;1.30;;;16.70;98.00;;;;;;4999128;28;20734;-79
2022/09/16 12:49:28;;;;;;;4.83;1.07;;;16.10;98.90;;;;;;4992878;28;20583;-80
2022/09/16 12:52:17;;;;;;;16.47;1.87;;;15.50;99.90;;;;;;4939808;28;21061;-79
2022/09/16 12:55:17;;;;;;;6.33;1.23;;;15.10;99.90;;;;;;4989411;28;20254;-79
2022/09/16 12:58:02;;;;;;;3.63;1.10;;;14.90;99.90;;;;;;4961046;28;20229;-79
2022/09/16 13:00:36;;;;;;;7.43;1.73;;;14.80;99.90;;;;;;4994943;28;20227;-80
2022/09/16 13:03:10;;;;;;;4.70;1.10;;;14.80;99.90;;;;;;4996442;28;20933;-81
2022/09/16 13:05:38;;;;;;;6.37;1.33;;;14.90;99.90;;;;;;4998189;28;20234;-79
2022/09/16 13:08:07;;;;;;;10.07;1.80;;;14.90;99.90;;;;;;5005723;28;20226;-79
2022/09/16 13:10:37;;;;;;;4.83;1.50;;;14.90;99.90;;;;;;4998794;28;20234;-79
2022/09/16 13:13:08;;;;;;;3.03;0.90;;;14.80;99.90;;;;;;4983102;28;22323;-78
2022/09/16 13:15:38;;;;;;;6.20;1.07;;;14.70;99.90;;;;;;4998024;28;20604;-79